Time;durP1;ratioP1;P1;durP2;ratioP2;P2;SDS_P1;SDS_P2;PMS_P1;PMS_P2;Temp;Humidity;BMP_temperature;BMP_pressure;BME280_temperature;BME280_humidity;BME280_pressure;Samples;Min_cycle;Max_cycle;Signal;HPM_P1;HPM_P2
2021/09/30 00:00:52;;;;;;;0.70;0.70;;;10.50;99.90;;;;;;5118259;23;20426;-87
2021/09/30 00:03:37;;;;;;;0.60;0.60;;;10.40;99.90;;;;;;4961998;28;20409;-89
2021/09/30 00:06:30;;;;;;;0.65;0.65;;;10.40;99.90;;;;;;4999320;28;20420;-87
2021/09/30 00:09:16;;;;;;;0.63;0.63;;;10.30;99.90;;;;;;4988992;28;20452;-84
2021/09/30 00:12:08;;;;;;;0.70;0.70;;;10.30;99.90;;;;;;4952097;28;20493;-85
2021/09/30 00:14:57;;;;;;;0.60;0.60;;;10.20;99.90;;;;;;4978168;28;20459;-88
2021/09/30 01:47:02;;;;;;;0.70;0.70;;;9.80;99.90;;;;;;5198436;23;20413;-78
2021/09/30 01:57:51;;;;;;;0.80;0.80;;;9.80;99.90;;;;;;5017382;28;20430;-82
2021/09/30 03:07:30;;;;;;;0.70;0.70;;;9.10;99.90;;;;;;5009377;28;20394;-81
2021/09/30 03:32:50;;;;;;;0.70;0.70;;;8.90;99.90;;;;;;5857716;22;20407;-80
2021/09/30 03:35:46;;;;;;;0.90;0.90;;;8.80;99.90;;;;;;4984515;28;20433;-80
2021/09/30 03:38:26;;;;;;;0.80;0.80;;;8.80;99.90;;;;;;5492770;23;20395;-80
2021/09/30 03:41:12;;;;;;;1.00;0.80;;;8.90;99.90;;;;;;4975784;28;20410;-80
2021/09/30 03:43:57;;;;;;;0.77;0.77;;;8.80;99.90;;;;;;4996334;28;20431;-81
2021/09/30 03:46:45;;;;;;;0.90;0.90;;;8.80;99.90;;;;;;4976535;28;20480;-81
2021/09/30 03:49:56;;;;;;;0.80;0.80;;;8.80;99.90;;;;;;4974658;28;20404;-80
2021/09/30 03:53:00;;;;;;;0.65;0.65;;;8.80;99.90;;;;;;4990489;28;20521;-80
2021/09/30 04:07:14;;;;;;;1.48;1.38;;;8.70;99.90;;;;;;5918452;22;20448;-82
2021/09/30 04:10:00;;;;;;;1.00;1.00;;;8.60;99.90;;;;;;4995262;28;20915;-82
2021/09/30 04:12:46;;;;;;;0.80;0.80;;;8.60;99.90;;;;;;4980499;28;20406;-82
2021/09/30 04:15:32;;;;;;;0.98;0.98;;;8.60;99.90;;;;;;4998373;28;20460;-82
2021/09/30 04:18:20;;;;;;;0.70;0.70;;;8.80;99.90;;;;;;4980349;28;20491;-82
2021/09/30 04:21:10;;;;;;;1.15;1.08;;;8.70;99.90;;;;;;4979339;28;20407;-82
2021/09/30 04:23:58;;;;;;;0.90;0.90;;;8.60;99.90;;;;;;4959658;28;20411;-82
2021/09/30 04:26:47;;;;;;;0.80;0.80;;;8.60;99.90;;;;;;4970435;28;20545;-82
2021/09/30 04:29:34;;;;;;;0.90;0.90;;;8.60;99.90;;;;;;4965262;28;20818;-81
2021/09/30 04:32:23;;;;;;;1.00;1.00;;;8.50;99.90;;;;;;4948439;28;20939;-81
2021/09/30 04:35:09;;;;;;;0.90;0.90;;;8.50;99.90;;;;;;4974412;28;20780;-82
2021/09/30 04:37:55;;;;;;;1.45;1.08;;;8.50;99.90;;;;;;5729694;22;22329;-80
2021/09/30 04:40:41;;;;;;;1.00;1.00;;;8.50;99.90;;;;;;5031708;28;20412;-80
2021/09/30 04:43:29;;;;;;;0.90;0.90;;;8.50;99.90;;;;;;5006544;28;20971;-81
2021/09/30 04:46:14;;;;;;;0.90;0.90;;;8.50;99.90;;;;;;4993961;28;20923;-81
2021/09/30 04:49:10;;;;;;;1.00;1.00;;;8.40;99.90;;;;;;4989589;28;20425;-81
2021/09/30 04:51:56;;;;;;;0.90;0.90;;;8.20;99.90;;;;;;4983505;28;20392;-81
2021/09/30 04:54:41;;;;;;;0.90;0.90;;;8.40;99.90;;;;;;5030271;28;20493;-81
2021/09/30 04:57:27;;;;;;;0.85;0.80;;;8.40;99.90;;;;;;5002589;28;20484;-81
2021/09/30 05:00:13;;;;;;;0.70;0.70;;;8.40;99.90;;;;;;4989590;28;20401;-81
2021/09/30 05:03:12;;;;;;;1.15;0.95;;;8.40;99.90;;;;;;5005576;28;20883;-80
2021/09/30 05:05:59;;;;;;;0.77;0.77;;;8.30;99.90;;;;;;5016453;28;20459;-81
2021/09/30 05:08:56;;;;;;;0.80;0.80;;;8.40;99.90;;;;;;5007068;28;20436;-81
2021/09/30 05:11:50;;;;;;;0.77;0.77;;;8.30;99.90;;;;;;5005110;28;20456;-81
2021/09/30 05:14:36;;;;;;;1.00;1.00;;;8.40;99.90;;;;;;5007537;28;20428;-80
2021/09/30 05:17:22;;;;;;;1.10;1.10;;;8.30;99.90;;;;;;4997246;28;20424;-80
2021/09/30 05:20:15;;;;;;;0.95;0.85;;;8.30;99.90;;;;;;4999760;28;20397;-80
2021/09/30 05:23:42;;;;;;;0.85;0.85;;;8.40;99.90;;;;;;5023180;28;20613;-80
2021/09/30 10:39:33;;;;;;;1.75;0.90;;;16.70;99.90;;;;;;5129915;22;20390;-90
2021/09/30 10:42:45;;;;;;;0.75;0.75;;;17.10;99.90;;;;;;5024962;28;20632;-91
2021/09/30 10:48:40;;;;;;;1.00;1.00;;;17.40;99.90;;;;;;5944239;22;20419;-91
2021/09/30 11:31:44;;;;;;;0.60;0.60;;;17.80;99.90;;;;;;5817827;22;20413;-82
2021/09/30 13:16:02;;;;;;;0.60;0.60;;;17.10;99.90;;;;;;5782986;22;20417;-90
2021/09/30 13:30:11;;;;;;;1.98;0.85;;;17.00;99.90;;;;;;5050097;28;20391;-89
2021/09/30 13:32:58;;;;;;;0.88;0.80;;;17.00;99.90;;;;;;5022913;28;20514;-91
2021/09/30 13:41:49;;;;;;;0.63;0.63;;;17.30;99.90;;;;;;5419353;22;20403;-87
2021/09/30 13:44:33;;;;;;;0.95;0.95;;;17.10;99.90;;;;;;5008690;28;20411;-87
2021/09/30 13:47:17;;;;;;;0.93;0.80;;;17.10;99.90;;;;;;4998356;28;20407;-87
2021/09/30 13:50:02;;;;;;;3.70;1.10;;;17.20;99.90;;;;;;4990008;28;20416;-89
2021/09/30 13:52:48;;;;;;;1.08;0.80;;;17.10;99.90;;;;;;5000240;28;20768;-86
2021/09/30 13:55:32;;;;;;;0.85;0.85;;;17.20;99.90;;;;;;4986727;28;20421;-85
2021/09/30 13:58:17;;;;;;;1.50;1.40;;;17.10;99.90;;;;;;4969387;28;20436;-84
2021/09/30 14:01:02;;;;;;;1.30;0.70;;;17.10;99.90;;;;;;4991821;28;20480;-89
2021/09/30 14:03:47;;;;;;;1.40;0.90;;;17.00;99.90;;;;;;4975528;28;20420;-88
2021/09/30 14:06:31;;;;;;;0.70;0.70;;;17.00;99.90;;;;;;5012912;28;20471;-85
2021/09/30 14:09:16;;;;;;;0.75;0.75;;;16.80;99.90;;;;;;4999449;28;21856;-89
2021/09/30 14:12:01;;;;;;;0.88;0.75;;;16.70;99.90;;;;;;5005788;28;20423;-87
2021/09/30 14:14:46;;;;;;;0.88;0.88;;;16.80;99.90;;;;;;4999188;28;20491;-88
2021/09/30 14:17:30;;;;;;;1.15;1.05;;;16.90;99.90;;;;;;4997046;28;20404;-88
2021/09/30 14:20:14;;;;;;;0.80;0.80;;;17.00;99.90;;;;;;4985039;28;20457;-88
2021/09/30 14:22:59;;;;;;;0.87;0.87;;;16.80;99.90;;;;;;4975666;28;20410;-89
2021/09/30 14:25:43;;;;;;;0.80;0.80;;;16.80;99.90;;;;;;4989731;28;20445;-85
2021/09/30 14:28:28;;;;;;;0.95;0.90;;;16.80;99.90;;;;;;4973255;28;20455;-89
2021/09/30 14:31:12;;;;;;;0.68;0.68;;;16.90;99.90;;;;;;4985921;28;20440;-90
2021/09/30 14:33:57;;;;;;;0.80;0.80;;;16.80;99.90;;;;;;4984896;28;20433;-89
2021/09/30 14:36:41;;;;;;;1.00;0.90;;;16.80;99.90;;;;;;4968993;28;20412;-83
2021/09/30 14:39:26;;;;;;;1.60;0.80;;;16.70;99.90;;;;;;4980933;28;20404;-83
2021/09/30 14:42:10;;;;;;;0.90;0.90;;;16.70;99.90;;;;;;4978475;28;20465;-85
2021/09/30 14:44:57;;;;;;;1.00;0.80;;;16.70;99.90;;;;;;4995673;28;20455;-82
2021/09/30 14:47:42;;;;;;;0.90;0.90;;;16.80;99.90;;;;;;4985510;28;20510;-84
2021/09/30 14:50:26;;;;;;;0.75;0.75;;;16.60;99.90;;;;;;4980628;28;20918;-84
2021/09/30 14:53:10;;;;;;;0.88;0.88;;;16.60;99.90;;;;;;4970287;28;20408;-84
2021/09/30 14:55:54;;;;;;;1.30;0.77;;;16.50;99.90;;;;;;4986243;28;20447;-81
2021/09/30 14:58:39;;;;;;;1.30;0.80;;;16.40;99.90;;;;;;4973350;28;20396;-84
2021/09/30 15:01:23;;;;;;;0.98;0.98;;;16.40;99.90;;;;;;4985071;28;20419;-83
2021/09/30 15:04:08;;;;;;;1.00;0.80;;;16.30;99.90;;;;;;4968208;28;20391;-86
2021/09/30 15:06:52;;;;;;;0.80;0.80;;;16.30;99.90;;;;;;4987299;28;20470;-84
2021/09/30 15:09:36;;;;;;;1.20;0.90;;;16.30;99.90;;;;;;4969971;28;20411;-86
2021/09/30 15:12:21;;;;;;;1.05;1.00;;;16.20;99.90;;;;;;4985845;28;20407;-86
2021/09/30 15:15:06;;;;;;;1.35;1.17;;;16.00;99.90;;;;;;4975603;28;20412;-82
2021/09/30 15:23:48;;;;;;;0.80;0.80;;;15.70;99.90;;;;;;5005461;28;20408;-88
2021/09/30 15:26:34;;;;;;;2.00;1.10;;;15.80;99.90;;;;;;4997201;28;20461;-84
2021/09/30 15:29:18;;;;;;;0.70;0.70;;;15.70;99.90;;;;;;4992921;28;20689;-85
2021/09/30 15:32:03;;;;;;;0.75;0.75;;;15.60;99.90;;;;;;4967980;28;20452;-85
2021/09/30 15:34:49;;;;;;;0.70;0.70;;;15.50;99.90;;;;;;5008500;28;20426;-85
2021/09/30 15:37:33;;;;;;;0.88;0.88;;;15.50;99.90;;;;;;4982636;28;20396;-83
2021/09/30 15:40:18;;;;;;;0.70;0.70;;;15.50;99.90;;;;;;4983388;28;20432;-86
2021/09/30 15:43:02;;;;;;;0.70;0.70;;;15.50;99.90;;;;;;4969747;28;20387;-86
2021/09/30 15:45:46;;;;;;;0.73;0.73;;;15.50;99.90;;;;;;4969345;28;21261;-82
2021/09/30 15:48:31;;;;;;;0.75;0.75;;;15.50;99.90;;;;;;4968616;28;20392;-82
2021/09/30 15:51:15;;;;;;;0.70;0.70;;;15.30;99.90;;;;;;4967348;28;20447;-85
2021/09/30 15:54:00;;;;;;;1.23;1.13;;;15.20;99.90;;;;;;4973500;28;20436;-82
2021/09/30 15:56:44;;;;;;;1.42;1.33;;;15.20;99.90;;;;;;4976594;28;20398;-88
2021/09/30 15:59:28;;;;;;;1.40;1.25;;;15.10;99.90;;;;;;4984131;28;20404;-85
2021/09/30 16:02:12;;;;;;;1.20;1.10;;;15.20;99.90;;;;;;4978116;28;21049;-83
2021/09/30 16:04:59;;;;;;;0.80;0.80;;;15.10;99.90;;;;;;4969441;28;20499;-83
2021/09/30 16:07:44;;;;;;;0.52;0.52;;;15.10;99.90;;;;;;4978555;28;20388;-87
2021/09/30 16:10:29;;;;;;;0.70;0.70;;;15.00;99.90;;;;;;4999081;28;20399;-82
2021/09/30 16:13:14;;;;;;;0.90;0.90;;;14.90;99.90;;;;;;4982313;28;20763;-83
2021/09/30 16:15:59;;;;;;;0.85;0.85;;;14.80;99.90;;;;;;4968357;28;20427;-86
2021/09/30 16:18:43;;;;;;;0.75;0.75;;;14.80;99.90;;;;;;4995615;28;20424;-84
2021/09/30 16:21:27;;;;;;;0.63;0.63;;;14.70;99.90;;;;;;5012074;28;20415;-83
2021/09/30 16:24:11;;;;;;;0.90;0.90;;;14.60;99.90;;;;;;4994637;28;20411;-81
2021/09/30 16:26:56;;;;;;;0.70;0.70;;;14.50;99.90;;;;;;4997394;28;20576;-83
2021/09/30 16:29:40;;;;;;;0.60;0.60;;;14.40;99.90;;;;;;4994637;28;20419;-83
2021/09/30 16:32:25;;;;;;;0.75;0.75;;;14.30;99.90;;;;;;5002947;28;20423;-84
2021/09/30 16:35:10;;;;;;;0.60;0.60;;;14.20;99.90;;;;;;4984600;28;20482;-85
2021/09/30 16:37:55;;;;;;;0.60;0.60;;;14.10;99.90;;;;;;4981252;28;20547;-85
2021/09/30 16:40:40;;;;;;;0.67;0.67;;;14.10;99.90;;;;;;4986943;28;20474;-85
2021/09/30 16:43:24;;;;;;;0.90;0.90;;;14.00;99.90;;;;;;4993776;28;20423;-83
2021/09/30 16:46:09;;;;;;;0.50;0.50;;;13.90;99.90;;;;;;4994026;28;20411;-84
2021/09/30 16:48:53;;;;;;;0.70;0.70;;;13.80;99.90;;;;;;4973972;28;20416;-84
2021/09/30 16:51:37;;;;;;;0.70;0.70;;;13.70;99.90;;;;;;4970173;28;20424;-85
2021/09/30 16:54:22;;;;;;;0.68;0.68;;;13.50;99.90;;;;;;4990108;28;20432;-81
2021/09/30 16:57:07;;;;;;;0.90;0.73;;;13.50;99.90;;;;;;4974386;28;20416;-87
2021/09/30 16:59:51;;;;;;;0.70;0.70;;;13.30;99.90;;;;;;4983263;28;20929;-84
2021/09/30 17:02:36;;;;;;;0.70;0.70;;;13.30;99.90;;;;;;4997311;28;20457;-85
2021/09/30 17:05:20;;;;;;;0.70;0.70;;;13.20;99.90;;;;;;4985168;28;20403;-82
2021/09/30 17:08:05;;;;;;;0.73;0.73;;;13.00;99.90;;;;;;4976865;28;20404;-82
2021/09/30 17:10:49;;;;;;;0.80;0.80;;;12.90;99.90;;;;;;4986002;28;21268;-81
2021/09/30 17:13:33;;;;;;;0.90;0.90;;;12.80;99.90;;;;;;4990840;28;20408;-85
2021/09/30 17:16:18;;;;;;;0.90;0.90;;;12.70;99.90;;;;;;4983719;28;20412;-81
2021/09/30 17:19:02;;;;;;;1.10;1.00;;;12.60;99.90;;;;;;4987119;28;20492;-81
2021/09/30 17:21:47;;;;;;;0.80;0.80;;;12.50;99.90;;;;;;4991572;28;20408;-82
2021/09/30 17:24:32;;;;;;;0.80;0.80;;;12.40;99.90;;;;;;4999777;28;20393;-87
2021/09/30 17:27:16;;;;;;;0.90;0.90;;;12.30;99.90;;;;;;5010837;28;20414;-82
2021/09/30 17:30:01;;;;;;;0.80;0.80;;;12.30;99.90;;;;;;5018087;28;20416;-85
2021/09/30 17:32:46;;;;;;;1.10;1.00;;;12.20;99.90;;;;;;4987244;28;20449;-86
2021/09/30 17:35:30;;;;;;;1.30;1.17;;;12.10;99.90;;;;;;5004190;28;20429;-88
2021/09/30 17:38:14;;;;;;;1.05;1.05;;;12.10;99.90;;;;;;4999423;28;20448;-86
2021/09/30 17:40:59;;;;;;;0.80;0.80;;;12.00;99.90;;;;;;4998492;28;20426;-83
2021/09/30 17:43:44;;;;;;;0.70;0.70;;;11.90;99.90;;;;;;5008983;28;20445;-85
2021/09/30 17:46:28;;;;;;;0.75;0.75;;;11.90;99.90;;;;;;5003106;28;20412;-84
2021/09/30 17:49:13;;;;;;;0.95;0.95;;;11.90;99.90;;;;;;4986582;28;20392;-85
2021/09/30 17:51:57;;;;;;;0.95;0.90;;;11.70;99.90;;;;;;5010234;28;20436;-85
2021/09/30 17:54:41;;;;;;;1.00;1.00;;;11.60;99.90;;;;;;4998108;28;20468;-86
2021/09/30 17:57:29;;;;;;;0.90;0.90;;;11.50;99.90;;;;;;4990567;28;20400;-87
2021/09/30 18:00:20;;;;;;;0.90;0.90;;;11.50;99.90;;;;;;5015979;28;20477;-85
2021/09/30 18:03:04;;;;;;;0.80;0.80;;;11.40;99.90;;;;;;4987430;28;20471;-87
2021/09/30 18:05:49;;;;;;;1.00;1.00;;;11.30;99.90;;;;;;5006577;28;20400;-85
2021/09/30 18:08:34;;;;;;;0.73;0.73;;;11.30;99.90;;;;;;5001501;28;20378;-84
2021/09/30 18:11:18;;;;;;;0.70;0.70;;;11.30;99.90;;;;;;5009719;28;20407;-89
2021/09/30 18:14:03;;;;;;;0.80;0.80;;;11.10;99.90;;;;;;5006132;28;20438;-85
2021/09/30 18:16:47;;;;;;;0.77;0.77;;;11.20;99.90;;;;;;4991707;28;20456;-83
2021/09/30 18:19:32;;;;;;;0.80;0.80;;;11.20;99.90;;;;;;4966005;28;20384;-82
2021/09/30 18:22:16;;;;;;;0.90;0.90;;;11.20;99.90;;;;;;4974104;28;20456;-83
2021/09/30 18:27:46;;;;;;;0.80;0.80;;;11.10;99.90;;;;;;5002291;28;20416;-86
2021/09/30 18:30:30;;;;;;;0.80;0.80;;;11.00;99.90;;;;;;4985079;28;20398;-85
2021/09/30 18:33:17;;;;;;;0.85;0.85;;;11.00;99.90;;;;;;4984160;28;20392;-85
2021/09/30 18:36:01;;;;;;;0.70;0.70;;;11.00;99.90;;;;;;5028120;28;20422;-81
2021/09/30 18:38:45;;;;;;;0.90;0.80;;;11.00;99.90;;;;;;5006402;28;20420;-86
2021/09/30 18:41:30;;;;;;;0.90;0.90;;;10.90;99.90;;;;;;4994784;28;20406;-81
2021/09/30 18:44:14;;;;;;;0.98;0.98;;;10.80;99.90;;;;;;5021302;28;20416;-84
2021/09/30 18:46:59;;;;;;;0.75;0.75;;;10.80;99.90;;;;;;4991084;28;20431;-84
2021/09/30 18:49:45;;;;;;;0.80;0.80;;;10.80;99.90;;;;;;4971202;28;20424;-85
2021/09/30 18:52:30;;;;;;;1.10;1.10;;;10.70;99.90;;;;;;4984942;28;20467;-83
2021/09/30 18:55:14;;;;;;;1.92;0.90;;;10.60;99.90;;;;;;4994364;28;20416;-83
2021/09/30 18:57:59;;;;;;;0.90;0.90;;;10.60;99.90;;;;;;4981828;28;20439;-84
2021/09/30 19:00:43;;;;;;;1.05;0.98;;;10.50;99.90;;;;;;4982354;28;20504;-82
2021/09/30 19:03:28;;;;;;;1.30;1.08;;;10.50;99.90;;;;;;4981620;28;20497;-84
2021/09/30 19:06:12;;;;;;;1.30;1.20;;;10.40;99.90;;;;;;4982610;28;20419;-86
2021/09/30 19:08:58;;;;;;;0.90;0.90;;;10.30;99.90;;;;;;5006635;28;20428;-85
2021/09/30 19:11:47;;;;;;;1.10;1.00;;;10.30;99.90;;;;;;4994819;28;20411;-83
2021/09/30 19:14:31;;;;;;;1.40;1.10;;;10.20;99.90;;;;;;4988857;28;20403;-82
2021/09/30 19:17:17;;;;;;;1.00;1.00;;;10.10;99.90;;;;;;4996471;28;20507;-85
2021/09/30 19:20:03;;;;;;;0.90;0.90;;;10.00;99.90;;;;;;4978395;28;20411;-86
2021/09/30 19:22:47;;;;;;;0.80;0.80;;;9.90;99.90;;;;;;4991191;28;20427;-85
2021/09/30 19:25:33;;;;;;;1.10;1.10;;;9.90;99.90;;;;;;4957139;28;20468;-81
2021/09/30 19:28:17;;;;;;;1.10;1.00;;;9.80;99.90;;;;;;4992636;28;20449;-89
2021/09/30 19:31:02;;;;;;;1.30;1.20;;;9.80;99.90;;;;;;4990386;28;20958;-84
2021/09/30 19:33:47;;;;;;;1.00;1.00;;;9.80;99.90;;;;;;4967288;28;20498;-81
2021/09/30 19:36:33;;;;;;;1.10;1.00;;;9.80;99.90;;;;;;4974080;28;20414;-81
2021/09/30 19:39:17;;;;;;;0.90;0.90;;;9.70;99.90;;;;;;4968150;28;20416;-81
2021/09/30 19:42:02;;;;;;;1.15;1.00;;;9.60;99.90;;;;;;4963329;28;20411;-81
2021/09/30 19:44:47;;;;;;;0.88;0.88;;;9.60;99.90;;;;;;4965905;28;20431;-83
2021/09/30 19:47:31;;;;;;;0.90;0.90;;;9.50;99.90;;;;;;4997742;28;20435;-81
2021/09/30 19:50:16;;;;;;;0.80;0.80;;;9.50;99.90;;;;;;4980911;28;20478;-80
2021/09/30 19:53:00;;;;;;;1.30;1.10;;;9.50;99.90;;;;;;4970926;28;20457;-83
2021/09/30 19:55:48;;;;;;;0.90;0.90;;;9.40;99.90;;;;;;4960634;28;20444;-82
2021/09/30 20:58:57;;;;;;;0.90;0.90;;;8.60;99.90;;;;;;5901957;22;20398;31
2021/09/30 21:03:06;;;;;;;2.58;1.15;;;8.60;99.90;;;;;;4955179;28;20417;-80
2021/09/30 21:56:45;;;;;;;1.23;1.13;;;8.00;99.90;;;;;;5394311;22;20396;-79
2021/09/30 22:36:08;;;;;;;1.70;1.25;;;7.60;99.90;;;;;;5075744;28;20404;-83
2021/09/30 23:03:21;;;;;;;1.10;1.10;;;7.60;99.90;;;;;;5060727;28;20457;-81
